Herndon, Pennsylvania
Current Conditions -  °F | °C
As of 6:18 PM on Wednesday 26 Nov 2014 (Local Time) from KSEG Reporting Station
Light Snow Light Snow  
Wind Chill: 29°   Ceiling: 3300
Heat Index: 33°   Visibility: 3mi
Dew Point: 31°   Wind: 5mph
Humidity: 92%   Direction: 350°N
Pressure: 29.99"   Gusts: NA
Location:  40.71°N, 76.84°W
Report Text: KSEG 262318Z AUTO 35004KT 3SM -SN BR FEW006 SCT011 OVC033 01/M01 A2999 RMK AO2 P0000 T00061006
Loading
Personal Weather Stations






























Interactive Weather Map New forecast layout! Learn more

10-Day Weather Forecast

Advertisements
Track Severe Weather on mobile